createdAt,value
2018-04-17T00:01:24.755Z,98143.73
2018-04-17T00:03:52.319Z,98141.97
2018-04-17T00:06:20.766Z,98141.61
2018-04-17T00:08:48.410Z,98151.06
2018-04-17T00:11:16.091Z,98141.02
2018-04-17T00:13:43.635Z,98146.50
2018-04-17T00:16:11.174Z,98139.94
2018-04-17T00:18:38.823Z,98138.34
2018-04-17T00:21:06.395Z,98148.11
2018-04-17T00:23:34.077Z,98143.45
2018-04-17T00:26:01.529Z,98146.73
2018-04-17T00:28:29.019Z,98145.89
2018-04-17T00:30:56.489Z,98137.81
2018-04-17T00:33:23.953Z,98148.36
2018-04-17T00:35:51.390Z,98148.25
2018-04-17T00:38:18.839Z,98144.52
2018-04-17T00:40:46.520Z,98152.25
2018-04-17T00:43:14.008Z,98155.05
2018-04-17T00:45:41.460Z,98163.31
2018-04-17T00:48:08.958Z,98164.65
2018-04-17T00:50:36.766Z,98161.47
2018-04-17T00:53:16.537Z,98162.13
2018-04-17T00:55:44.026Z,98167.61
2018-04-17T00:58:12.088Z,98169.00
2018-04-17T01:00:39.604Z,98172.56
2018-04-17T01:03:07.118Z,98175.48
2018-04-17T01:05:34.771Z,98178.43
2018-04-17T01:08:02.293Z,98181.68
2018-04-17T01:10:30.125Z,98175.08
2018-04-17T01:12:57.594Z,98181.17
2018-04-17T01:15:25.059Z,98176.61
2018-04-17T01:17:52.510Z,98182.19
2018-04-17T01:20:19.948Z,98185.88
2018-04-17T01:22:47.439Z,98182.66
2018-04-17T01:25:14.864Z,98186.85
2018-04-17T01:27:42.367Z,98184.36
2018-04-17T01:30:09.844Z,98187.00
2018-04-17T01:32:37.492Z,98181.95
2018-04-17T01:35:04.929Z,98184.66
2018-04-17T01:37:32.394Z,98191.33
2018-04-17T01:39:59.871Z,98195.04
2018-04-17T01:42:27.359Z,98195.36
2018-04-17T01:44:54.814Z,98201.02
2018-04-17T01:47:22.522Z,98203.31
2018-04-17T01:49:50.307Z,98204.18
2018-04-17T01:52:17.797Z,98211.11
2018-04-17T01:54:45.251Z,98206.66
2018-04-17T01:57:13.030Z,98203.47
2018-04-17T01:59:40.611Z,98207.03
2018-04-17T02:02:08.047Z,98211.00
2018-04-17T02:04:35.507Z,98211.66
2018-04-17T02:07:03.603Z,98207.33
2018-04-17T02:09:31.065Z,98211.06
2018-04-17T02:11:58.529Z,98205.44
2018-04-17T02:14:26.003Z,98214.88
2018-04-17T02:16:53.877Z,98218.35
2018-04-17T02:19:22.146Z,98214.16
2018-04-17T02:21:50.108Z,98214.70
2018-04-17T02:24:17.616Z,98211.77
2018-04-17T02:26:45.073Z,98211.67
2018-04-17T02:29:12.545Z,98221.63
2018-04-17T02:31:40.060Z,98219.84
2018-04-17T02:34:07.558Z,98215.88
2018-04-17T02:36:35.019Z,98222.02
2018-04-17T02:39:02.452Z,98225.64
2018-04-17T02:41:29.917Z,98225.83
2018-04-17T02:43:57.453Z,98224.43
2018-04-17T02:46:24.934Z,98227.37
2018-04-17T02:48:52.378Z,98231.83
2018-04-17T02:51:19.879Z,98230.27
2018-04-17T02:53:47.339Z,98227.71
2018-04-17T02:56:14.799Z,98235.47
2018-04-17T02:58:42.245Z,98234.34
2018-04-17T03:01:09.781Z,98238.36
2018-04-17T03:03:37.249Z,98239.25
2018-04-17T03:06:05.419Z,98247.42
2018-04-17T03:08:32.928Z,98253.07
2018-04-17T03:11:00.373Z,98253.86
2018-04-17T03:13:27.838Z,98255.50
2018-04-17T03:15:55.327Z,98255.41
2018-04-17T03:18:23.687Z,98259.39
2018-04-17T03:20:51.211Z,98260.48
2018-04-17T03:23:22.659Z,98258.72
2018-04-17T03:25:50.140Z,98267.61
2018-04-17T03:28:17.609Z,98268.41
2018-04-17T03:30:45.149Z,98272.14
2018-04-17T03:33:12.607Z,98264.79
2018-04-17T03:35:43.628Z,98264.90
2018-04-17T03:38:11.115Z,98272.52
2018-04-17T03:40:38.927Z,98273.74
2018-04-17T03:43:06.519Z,98278.05
2018-04-17T03:45:33.953Z,98282.95
2018-04-17T03:48:01.470Z,98289.73
2018-04-17T03:50:28.931Z,98296.31
2018-04-17T03:52:56.392Z,98297.03
2018-04-17T03:55:23.977Z,98298.25
2018-04-17T03:57:51.471Z,98294.89
2018-04-17T04:00:19.027Z,98303.75
2018-04-17T04:02:46.551Z,98306.84
2018-04-17T04:05:13.964Z,98310.61
2018-04-17T04:07:41.559Z,98309.56
2018-04-17T04:10:13.200Z,98312.44
2018-04-17T04:12:40.654Z,98314.06
2018-04-17T04:15:08.118Z,98314.34
2018-04-17T04:17:47.332Z,98315.41
2018-04-17T04:20:26.603Z,98323.48
2018-04-17T04:23:05.817Z,98327.91
2018-04-17T04:28:42.056Z,98332.81
2018-04-17T04:31:09.590Z,98342.76
2018-04-17T04:33:37.103Z,98339.67
2018-04-17T04:36:04.561Z,98345.98
2018-04-17T04:38:32.006Z,98351.91
2018-04-17T04:41:00.279Z,98356.61
2018-04-17T04:43:28.053Z,98354.60
2018-04-17T04:45:55.512Z,98360.24
2018-04-17T04:48:22.966Z,98366.84
2018-04-17T04:50:50.459Z,98362.94
2018-04-17T04:53:17.921Z,98370.61
2018-04-17T04:55:45.660Z,98372.75
2018-04-17T04:58:13.115Z,98373.52
2018-04-17T05:00:41.321Z,98375.56
2018-04-17T05:03:08.787Z,98385.38
2018-04-17T05:05:36.220Z,98385.63
2018-04-17T05:08:05.262Z,98386.97
2018-04-17T05:10:33.256Z,98382.69
2018-04-17T05:13:00.820Z,98393.04
2018-04-17T05:15:28.264Z,98395.20
2018-04-17T05:17:55.836Z,98397.08
2018-04-17T05:20:23.396Z,98398.38
2018-04-17T05:22:50.953Z,98409.80
2018-04-17T05:25:19.009Z,98412.27
2018-04-17T05:27:46.445Z,98411.53
2018-04-17T05:30:13.897Z,98422.72
2018-04-17T05:32:41.330Z,98422.08
2018-04-17T05:35:12.042Z,98421.84
2018-04-17T05:37:39.880Z,98427.14
2018-04-17T05:40:07.367Z,98426.86
2018-04-17T05:42:34.918Z,98431.16
2018-04-17T05:45:02.381Z,98424.22
2018-04-17T05:47:29.841Z,98434.06
2018-04-17T05:49:57.674Z,98426.31
2018-04-17T05:52:25.176Z,98433.10
2018-04-17T05:54:52.597Z,98434.80
2018-04-17T05:57:20.192Z,98435.53
2018-04-17T05:59:47.672Z,98435.07
2018-04-17T06:02:15.109Z,98437.39
2018-04-17T06:04:42.570Z,98437.80
2018-04-17T06:07:10.039Z,98447.13
2018-04-17T06:09:38.108Z,98445.27
2018-04-17T06:12:05.542Z,98442.42
2018-04-17T06:14:33.070Z,98443.81
2018-04-17T06:17:00.544Z,98451.88
2018-04-17T06:19:28.492Z,98451.91
2018-04-17T06:21:56.036Z,98458.34
2018-04-17T06:24:23.523Z,98460.50
2018-04-17T06:26:50.956Z,98462.11
2018-04-17T06:29:19.353Z,98463.71
2018-04-17T06:31:46.787Z,98475.27
2018-04-17T06:34:14.243Z,98478.16
2018-04-17T06:36:41.789Z,98478.61
2018-04-17T06:39:09.313Z,98482.80
2018-04-17T06:41:36.773Z,98486.23
2018-04-17T06:44:04.220Z,98481.70
2018-04-17T06:46:31.670Z,98485.75
2018-04-17T06:48:59.175Z,98483.73
2018-04-17T06:51:26.624Z,98485.53
2018-04-17T06:53:54.070Z,98489.45
2018-04-17T06:56:21.551Z,98485.18
2018-04-17T06:58:49.075Z,98487.05
2018-04-17T07:01:16.580Z,98492.97
2018-04-17T07:03:44.047Z,98490.41
2018-04-17T07:06:11.514Z,98489.73
2018-04-17T07:08:38.968Z,98508.20
2018-04-17T07:11:06.422Z,98499.33
2018-04-17T07:13:33.855Z,98506.97
2018-04-17T07:16:05.653Z,98510.90
2018-04-17T07:18:33.578Z,98510.09
2018-04-17T07:21:01.060Z,98512.25
2018-04-17T07:23:28.537Z,98515.30
2018-04-17T07:25:56.306Z,98515.53
2018-04-17T07:28:23.823Z,98515.57
2018-04-17T07:30:51.264Z,98509.33
2018-04-17T07:33:18.737Z,98524.71
2018-04-17T07:35:46.205Z,98522.63
2018-04-17T07:38:13.669Z,98521.45
2018-04-17T07:40:41.120Z,98526.48
2018-04-17T07:43:08.594Z,98528.13
2018-04-17T07:45:36.380Z,98530.34
2018-04-17T07:48:22.644Z,98535.84
2018-04-17T07:50:50.072Z,98540.09
2018-04-17T07:53:17.879Z,98543.22
2018-04-17T07:55:45.382Z,98551.19
2018-04-17T07:58:12.805Z,98550.63
2018-04-17T08:00:40.326Z,98557.05
2018-04-17T08:03:07.764Z,98556.73
2018-04-17T08:05:35.322Z,98561.15
2018-04-17T08:08:03.610Z,98561.72
2018-04-17T08:10:31.085Z,98560.81
2018-04-17T08:12:58.543Z,98568.11
2018-04-17T08:15:25.999Z,98563.14
2018-04-17T08:17:53.449Z,98569.72
2018-04-17T08:20:21.368Z,98579.58
2018-04-17T08:22:49.227Z,98576.59
2018-04-17T08:25:16.787Z,98573.98
2018-04-17T08:27:45.080Z,98572.38
2018-04-17T08:30:12.573Z,98576.39
2018-04-17T08:32:40.030Z,98570.99
2018-04-17T08:35:07.863Z,98570.30
2018-04-17T08:37:35.297Z,98573.40
2018-04-17T08:40:02.730Z,98574.44
2018-04-17T08:42:30.227Z,98580.38
2018-04-17T08:44:58.313Z,98584.99
2018-04-17T08:47:25.773Z,98580.78
2018-04-17T08:49:53.222Z,98586.13
2018-04-17T08:52:20.760Z,98576.13
2018-04-17T08:54:48.193Z,98555.66
2018-04-17T08:57:15.657Z,98574.28
2018-04-17T08:59:43.112Z,98573.23
2018-04-17T09:02:10.589Z,98579.23
2018-04-17T09:04:38.045Z,98574.59
2018-04-17T09:07:05.511Z,98574.23
2018-04-17T09:09:32.992Z,98586.41
2018-04-17T09:12:00.495Z,98586.85
2018-04-17T09:14:27.890Z,98579.74
2018-04-17T09:16:55.344Z,98585.50
2018-04-17T09:19:22.804Z,98585.58
2018-04-17T09:21:50.322Z,98583.91
2018-04-17T09:24:17.784Z,98585.22
2018-04-17T09:26:45.240Z,98583.72
2018-04-17T09:29:12.781Z,98582.74
2018-04-17T09:31:41.020Z,98581.33
2018-04-17T09:34:08.536Z,98583.34
2018-04-17T09:36:36.130Z,98589.41
2018-04-17T09:39:07.719Z,98583.66
2018-04-17T09:41:35.216Z,98593.21
2018-04-17T09:44:02.684Z,98594.38
2018-04-17T09:46:30.374Z,98589.08
2018-04-17T09:48:57.815Z,98584.80
2018-04-17T09:51:25.264Z,98588.27
2018-04-17T09:53:52.730Z,98586.45
2018-04-17T09:56:20.256Z,98588.34
2018-04-17T09:58:47.691Z,98589.67
2018-04-17T10:01:21.563Z,98587.22
2018-04-17T10:03:49.383Z,98584.83
2018-04-17T10:06:16.864Z,98587.64
2018-04-17T10:08:44.325Z,98587.88
2018-04-17T10:11:11.798Z,98588.59
2018-04-17T10:13:39.865Z,98592.61
2018-04-17T10:16:07.375Z,98592.50
2018-04-17T10:18:34.933Z,98585.66
2018-04-17T10:21:02.515Z,98586.02
2018-04-17T10:23:30.100Z,98581.72
2018-04-17T10:25:57.529Z,98582.21
2018-04-17T10:28:25.011Z,98582.21
2018-04-17T10:30:52.487Z,98576.05
2018-04-17T10:33:19.937Z,98576.86
2018-04-17T10:35:47.388Z,98573.02
2018-04-17T10:38:14.863Z,98575.49
2018-04-17T10:40:42.385Z,98582.17
2018-04-17T10:43:09.909Z,98579.55
2018-04-17T10:45:37.348Z,98581.81
2018-04-17T10:48:04.806Z,98578.69
2018-04-17T10:50:32.273Z,98576.22
2018-04-17T10:52:59.734Z,98580.14
2018-04-17T10:55:27.192Z,98575.06
2018-04-17T10:57:54.645Z,98577.99
2018-04-17T11:00:22.107Z,98577.55
2018-04-17T11:02:49.640Z,98576.55
2018-04-17T11:05:17.110Z,98577.92
2018-04-17T11:07:44.538Z,98582.36
2018-04-17T11:10:12.267Z,98578.86
2018-04-17T11:12:39.690Z,98575.05
2018-04-17T11:15:07.203Z,98577.97
2018-04-17T11:17:34.815Z,98571.03
2018-04-17T11:20:02.285Z,98571.20
2018-04-17T11:22:29.741Z,98576.37
2018-04-17T11:24:57.235Z,98573.45
2018-04-17T11:27:24.714Z,98569.38
2018-04-17T11:29:52.173Z,98566.45
2018-04-17T11:32:19.658Z,98559.84
2018-04-17T11:34:47.119Z,98559.73
2018-04-17T11:37:14.576Z,98563.98
2018-04-17T11:39:42.046Z,98559.38
2018-04-17T11:42:09.512Z,98557.98
2018-04-17T11:44:36.955Z,98561.86
2018-04-17T11:47:04.399Z,98563.50
2018-04-17T11:49:31.845Z,98558.83
2018-04-17T11:51:59.302Z,98558.74
2018-04-17T11:54:26.785Z,98563.22
2018-04-17T11:56:54.242Z,98566.42
2018-04-17T11:59:21.672Z,98555.13
2018-04-17T12:01:49.140Z,98555.88
2018-04-17T12:04:16.617Z,98558.34
2018-04-17T12:06:45.219Z,98558.52
2018-04-17T12:09:12.643Z,98557.91
2018-04-17T12:11:40.178Z,98555.47
2018-04-17T12:14:08.090Z,98561.83
2018-04-17T12:16:35.544Z,98561.88
2018-04-17T12:19:03.064Z,98551.70
2018-04-17T12:21:30.510Z,98553.82
2018-04-17T12:23:57.979Z,98550.35
2018-04-17T12:26:25.444Z,98546.89
2018-04-17T12:28:53.596Z,98543.78
2018-04-17T12:31:21.075Z,98541.24
2018-04-17T12:33:48.602Z,98543.23
2018-04-17T12:36:16.064Z,98542.27
2018-04-17T12:38:43.615Z,98551.29
2018-04-17T12:41:11.152Z,98541.63
2018-04-17T12:43:38.738Z,98535.82
2018-04-17T12:46:07.060Z,98529.57
2018-04-17T12:48:35.120Z,98531.25
2018-04-17T12:51:02.610Z,98526.70
2018-04-17T12:53:30.083Z,98528.70
2018-04-17T12:55:57.530Z,98540.45
2018-04-17T12:58:25.030Z,98541.09
2018-04-17T13:00:52.870Z,98535.91
2018-04-17T13:03:20.421Z,98537.63
2018-04-17T13:05:48.015Z,98539.75
2018-04-17T13:08:15.541Z,98540.52
2018-04-17T13:10:43.122Z,98536.52
2018-04-17T13:13:10.751Z,98538.06
2018-04-17T13:15:38.288Z,98530.25
2018-04-17T13:18:06.409Z,98544.81
2018-04-17T13:20:33.844Z,98544.95
2018-04-17T13:23:01.296Z,98544.20
2018-04-17T13:25:28.798Z,98545.13
2018-04-17T13:27:56.251Z,98540.77
2018-04-17T13:30:23.708Z,98532.69
2018-04-17T13:32:51.243Z,98535.54
2018-04-17T13:35:18.675Z,98533.25
2018-04-17T13:37:46.597Z,98529.58
2018-04-17T13:40:14.195Z,98531.98
2018-04-17T13:42:41.675Z,98529.31
2018-04-17T13:45:09.124Z,98525.72
2018-04-17T13:47:37.184Z,98519.05
2018-04-17T13:50:04.967Z,98522.48
2018-04-17T13:52:32.428Z,98527.61
2018-04-17T13:54:59.869Z,98528.42
2018-04-17T13:57:27.348Z,98523.59
2018-04-17T13:59:54.806Z,98525.84
2018-04-17T14:02:22.248Z,98523.08
2018-04-17T14:04:50.515Z,98525.83
2018-04-17T14:07:17.943Z,98532.53
2018-04-17T14:09:45.463Z,98529.92
2018-04-17T14:12:12.899Z,98523.78
2018-04-17T14:14:40.357Z,98531.94
2018-04-17T14:17:07.801Z,98523.24
2018-04-17T14:19:35.311Z,98521.58
2018-04-17T14:22:02.753Z,98518.69
2018-04-17T14:24:30.192Z,98516.05
2018-04-17T14:26:57.660Z,98522.99
2018-04-17T14:29:25.129Z,98523.08
2018-04-17T14:31:52.559Z,98526.84
2018-04-17T14:34:20.144Z,98521.00
2018-04-17T14:36:47.617Z,98523.94
2018-04-17T14:39:15.094Z,98528.13
2018-04-17T14:41:43.224Z,98529.05
2018-04-17T14:44:10.973Z,98531.59
2018-04-17T14:46:39.015Z,98531.40
2018-04-17T14:49:06.487Z,98532.59
2018-04-17T14:51:33.929Z,98532.13
2018-04-17T14:54:01.355Z,98531.02
2018-04-17T14:56:29.080Z,98530.37
2018-04-17T14:58:56.852Z,98528.06
2018-04-17T15:01:24.367Z,98533.09
2018-04-17T15:03:51.778Z,98536.20
2018-04-17T15:06:19.248Z,98532.76
2018-04-17T15:08:47.503Z,98535.29
2018-04-17T15:11:15.779Z,98531.41
2018-04-17T15:13:43.224Z,98528.80
2018-04-17T15:16:11.421Z,98530.20
2018-04-17T15:18:38.905Z,98528.23
2018-04-17T15:21:06.579Z,98525.66
2018-04-17T15:23:34.032Z,98519.70
2018-04-17T15:26:01.670Z,98526.82
2018-04-17T15:28:29.228Z,98521.87
2018-04-17T15:30:56.682Z,98519.77
2018-04-17T15:33:24.149Z,98523.30
2018-04-17T15:35:51.662Z,98522.81
2018-04-17T15:38:19.135Z,98524.87
2018-04-17T15:40:46.612Z,98518.39
2018-04-17T15:43:14.079Z,98519.41
2018-04-17T15:45:41.866Z,98506.63
2018-04-17T15:48:09.371Z,98524.91
2018-04-17T15:50:36.897Z,98528.91
2018-04-17T15:53:04.393Z,98535.24
2018-04-17T15:55:32.320Z,98533.59
2018-04-17T15:57:59.826Z,98542.13
2018-04-17T16:00:27.311Z,98535.23
2018-04-17T16:02:54.773Z,98545.55
2018-04-17T16:05:22.241Z,98537.05
2018-04-17T16:07:50.171Z,98536.84
2018-04-17T16:10:18.571Z,98539.63
2018-04-17T16:12:46.402Z,98546.30
2018-04-17T16:15:13.890Z,98547.08
2018-04-17T16:17:42.144Z,98549.75
2018-04-17T16:20:09.625Z,98548.73
2018-04-17T16:22:37.382Z,98544.76
2018-04-17T16:25:04.947Z,98548.33
2018-04-17T16:27:32.414Z,98549.56
2018-04-17T16:29:59.890Z,98542.90
2018-04-17T16:32:27.320Z,98553.43
2018-04-17T16:34:55.163Z,98549.37
2018-04-17T16:37:22.637Z,98546.98
2018-04-17T16:39:50.134Z,98546.30
2018-04-17T16:42:17.596Z,98542.95
2018-04-17T16:44:45.292Z,98555.85
2018-04-17T16:47:12.805Z,98559.70
2018-04-17T16:49:40.335Z,98556.81
2018-04-17T16:52:07.832Z,98556.33
2018-04-17T16:54:35.889Z,98558.99
2018-04-17T16:57:03.472Z,98561.12
2018-04-17T16:59:31.063Z,98563.73
2018-04-17T17:01:58.589Z,98559.16
2018-04-17T17:04:26.196Z,98558.27
2018-04-17T17:06:53.799Z,98560.23
2018-04-17T17:09:22.264Z,98557.13
2018-04-17T17:11:50.176Z,98560.98
2018-04-17T17:14:18.396Z,98561.30
2018-04-17T17:16:45.891Z,98562.43
2018-04-17T17:19:13.729Z,98570.72
2018-04-17T17:21:41.262Z,98565.03
2018-04-17T17:24:08.947Z,98567.65
2018-04-17T17:26:36.601Z,98577.34
2018-04-17T17:29:04.075Z,98575.54
2018-04-17T17:31:31.574Z,98574.56
2018-04-17T17:33:59.904Z,98575.53
2018-04-17T17:36:27.426Z,98585.34
2018-04-17T17:38:55.516Z,98590.13
2018-04-17T17:41:23.283Z,98595.88
2018-04-17T17:43:50.816Z,98606.89
2018-04-17T17:46:18.280Z,98605.25
2018-04-17T17:48:45.765Z,98611.94
2018-04-17T17:51:13.279Z,98611.14
2018-04-17T17:53:40.806Z,98616.09
2018-04-17T17:56:08.288Z,98623.43
2018-04-17T17:58:35.750Z,98621.78
2018-04-17T18:01:03.296Z,98624.64
2018-04-17T18:03:30.791Z,98627.69
2018-04-17T18:05:58.233Z,98637.64
2018-04-17T18:08:26.709Z,98640.16
2018-04-17T18:10:54.404Z,98645.63
2018-04-17T18:13:21.988Z,98651.63
2018-04-17T18:15:49.819Z,98657.18
2018-04-17T18:18:18.483Z,98656.75
2018-04-17T18:20:46.305Z,98665.16
2018-04-17T18:23:16.357Z,98666.72
2018-04-17T18:25:44.047Z,98669.09
2018-04-17T18:28:11.581Z,98676.06
2018-04-17T18:30:39.592Z,98685.13
2018-04-17T18:33:07.089Z,98688.98
2018-04-17T18:35:34.562Z,98692.64
2018-04-17T18:38:02.902Z,98695.31
2018-04-17T18:40:30.443Z,98705.13
2018-04-17T18:42:58.823Z,98710.50
2018-04-17T18:45:26.265Z,98716.31
2018-04-17T18:47:53.939Z,98722.14
2018-04-17T18:50:21.463Z,98721.38
2018-04-17T18:52:49.004Z,98725.37
2018-04-17T18:55:17.093Z,98729.48
2018-04-17T18:57:44.546Z,98733.80
2018-04-17T19:00:12.068Z,98748.10
2018-04-17T19:02:39.654Z,98742.13
2018-04-17T19:05:07.150Z,98750.01
2018-04-17T19:07:35.023Z,98755.22
2018-04-17T19:10:02.538Z,98754.11
2018-04-17T19:12:29.963Z,98768.22
2018-04-17T19:14:57.458Z,98766.91
2018-04-17T19:17:25.041Z,98766.23
2018-04-17T19:19:52.627Z,98768.35
2018-04-17T19:22:20.183Z,98772.02
2018-04-17T19:24:47.749Z,98773.83
2018-04-17T19:27:15.612Z,98777.86
2018-04-17T19:29:43.089Z,98778.11
2018-04-17T19:32:10.940Z,98777.02
2018-04-17T19:34:38.372Z,98786.50
2018-04-17T19:37:05.893Z,98788.77
2018-04-17T19:39:34.229Z,98787.08
2018-04-17T19:42:01.875Z,98783.47
2018-04-17T19:44:29.774Z,98784.17
2018-04-17T19:46:57.457Z,98791.01
2018-04-17T19:49:25.252Z,98794.48
2018-04-17T19:51:52.800Z,98802.45
2018-04-17T19:54:20.713Z,98796.91
2018-04-17T19:56:49.486Z,98803.01
2018-04-17T19:59:17.020Z,98801.39
2018-04-17T20:01:44.834Z,98803.23
2018-04-17T20:04:13.122Z,98803.39
2018-04-17T20:06:40.581Z,98809.67
2018-04-17T20:09:08.129Z,98822.12
2018-04-17T20:11:35.596Z,98819.72
2018-04-17T20:14:03.380Z,98828.22
2018-04-17T20:16:31.509Z,98819.23
2018-04-17T20:18:58.978Z,98825.06
2018-04-17T20:21:26.543Z,98829.62
2018-04-17T20:23:54.361Z,98831.06
2018-04-17T20:26:22.309Z,98835.13
2018-04-17T20:28:50.371Z,98841.30
2018-04-17T20:31:18.643Z,98846.87
2018-04-17T20:33:46.866Z,98838.20
2018-04-17T20:36:15.218Z,98836.99
2018-04-17T20:38:43.288Z,98836.02
2018-04-17T20:41:11.121Z,98840.52
2018-04-17T20:43:38.597Z,98837.33
2018-04-17T20:46:06.167Z,98839.77
2018-04-17T20:48:34.415Z,98841.75
2018-04-17T20:51:01.938Z,98842.85
2018-04-17T20:53:29.467Z,98843.60
2018-04-17T20:55:56.979Z,98838.87
2018-04-17T20:58:25.029Z,98845.95
2018-04-17T21:00:52.879Z,98840.79
2018-04-17T21:03:20.344Z,98840.05
2018-04-17T21:05:47.877Z,98842.55
2018-04-17T21:08:16.208Z,98841.03
2018-04-17T21:10:43.877Z,98840.13
2018-04-17T21:13:12.258Z,98840.84
2018-04-17T21:15:40.362Z,98840.03
2018-04-17T21:20:39.784Z,98835.87
2018-04-17T21:23:09.187Z,98837.60
2018-04-17T21:25:36.651Z,98836.09
2018-04-17T21:28:04.116Z,98846.48
2018-04-17T21:30:31.628Z,98848.14
2018-04-17T21:32:59.805Z,98848.71
2018-04-17T21:35:27.423Z,98855.66
2018-04-17T21:37:55.633Z,98851.42
2018-04-17T21:40:23.210Z,98855.09
2018-04-17T21:42:50.899Z,98860.44
2018-04-17T21:45:18.429Z,98864.75
2018-04-17T21:47:46.306Z,98854.56
2018-04-17T21:50:13.841Z,98862.33
2018-04-17T21:52:41.415Z,98858.86
2018-04-17T21:55:09.004Z,98866.92
2018-04-17T21:57:36.771Z,98868.39
2018-04-17T22:00:04.356Z,98875.43
2018-04-17T22:02:31.884Z,98867.73
2018-04-17T22:05:01.018Z,98872.41
2018-04-17T22:07:28.507Z,98871.66
2018-04-17T22:09:56.098Z,98873.73
2018-04-17T22:12:23.837Z,98875.56
2018-04-17T22:14:51.305Z,98876.71
2018-04-17T22:17:18.856Z,98875.19
2018-04-17T22:22:17.974Z,98882.16
2018-04-17T22:24:45.431Z,98886.88
2018-04-17T22:27:12.902Z,98892.53
2018-04-17T22:29:40.535Z,98885.66
2018-04-17T22:32:08.129Z,98892.36
2018-04-17T22:34:35.944Z,98895.59
2018-04-17T22:37:03.730Z,98893.92
2018-04-17T22:39:31.578Z,98895.58
2018-04-17T22:41:59.012Z,98898.70
2018-04-17T22:44:26.489Z,98897.67
2018-04-17T22:46:54.811Z,98902.23
2018-04-17T22:49:23.175Z,98902.13
2018-04-17T22:51:50.629Z,98903.23
2018-04-17T22:54:18.134Z,98906.61
2018-04-17T22:56:45.925Z,98908.37
2018-04-17T22:59:13.417Z,98911.27
2018-04-17T23:01:41.174Z,98907.45
2018-04-17T23:04:08.612Z,98908.48
2018-04-17T23:06:36.075Z,98912.70
2018-04-17T23:09:04.295Z,98914.31
2018-04-17T23:11:32.112Z,98920.33
2018-04-17T23:13:59.873Z,98921.05
2018-04-17T23:16:27.425Z,98915.73
2018-04-17T23:18:54.880Z,98920.21
2018-04-17T23:21:22.344Z,98927.50
2018-04-17T23:23:50.018Z,98929.78
2018-04-17T23:26:17.511Z,98928.36
2018-04-17T23:28:44.990Z,98930.67
2018-04-17T23:31:12.454Z,98935.84
2018-04-17T23:33:40.552Z,98940.08
2018-04-17T23:36:08.042Z,98940.09
2018-04-17T23:38:35.570Z,98941.13
2018-04-17T23:41:03.243Z,98942.14
2018-04-17T23:43:30.759Z,98938.02
2018-04-17T23:45:58.212Z,98944.31
2018-04-17T23:48:25.690Z,98947.57
2018-04-17T23:50:53.164Z,98945.78
2018-04-17T23:53:20.656Z,98943.96
2018-04-17T23:55:48.115Z,98945.17
2018-04-17T23:58:16.147Z,98949.76
